sensor_id;sensor_type;location;lat;lon;timestamp;P1;durP1;ratioP1;P2;durP2;ratioP2
61003;SDS011;46889;37.310;13.582;2022-09-20T00:01:20;7.22;;;1.38;;
61003;SDS011;46889;37.310;13.582;2022-09-20T00:03:49;3.58;;;1.55;;
61003;SDS011;46889;37.310;13.582;2022-09-20T00:06:18;3.20;;;1.40;;
61003;SDS011;46889;37.310;13.582;2022-09-20T00:08:46;4.80;;;1.58;;
61003;SDS011;46889;37.310;13.582;2022-09-20T00:11:23;4.90;;;1.40;;
61003;SDS011;46889;37.310;13.582;2022-09-20T00:13:51;2.65;;;1.30;;
61003;SDS011;46889;37.310;13.582;2022-09-20T00:16:27;4.03;;;1.40;;
61003;SDS011;46889;37.310;13.582;2022-09-20T00:18:56;4.30;;;1.60;;
61003;SDS011;46889;37.310;13.582;2022-09-20T00:21:24;5.95;;;1.63;;
61003;SDS011;46889;37.310;13.582;2022-09-20T00:23:52;5.60;;;1.70;;
61003;SDS011;46889;37.310;13.582;2022-09-20T00:26:19;6.63;;;1.40;;
61003;SDS011;46889;37.310;13.582;2022-09-20T00:28:45;5.85;;;1.52;;
61003;SDS011;46889;37.310;13.582;2022-09-20T00:31:12;4.47;;;1.42;;
61003;SDS011;46889;37.310;13.582;2022-09-20T00:33:39;5.13;;;1.45;;
61003;SDS011;46889;37.310;13.582;2022-09-20T00:38:55;4.68;;;1.60;;
61003;SDS011;46889;37.310;13.582;2022-09-20T00:41:25;6.15;;;1.60;;
61003;SDS011;46889;37.310;13.582;2022-09-20T00:43:51;4.35;;;1.52;;
61003;SDS011;46889;37.310;13.582;2022-09-20T00:46:23;4.15;;;1.63;;
61003;SDS011;46889;37.310;13.582;2022-09-20T00:49:16;4.63;;;1.75;;
61003;SDS011;46889;37.310;13.582;2022-09-20T00:51:47;6.45;;;1.80;;
61003;SDS011;46889;37.310;13.582;2022-09-20T00:54:16;5.78;;;1.75;;
61003;SDS011;46889;37.310;13.582;2022-09-20T00:56:44;6.90;;;1.70;;
61003;SDS011;46889;37.310;13.582;2022-09-20T00:59:14;7.93;;;1.65;;
61003;SDS011;46889;37.310;13.582;2022-09-20T01:04:38;6.47;;;1.80;;
61003;SDS011;46889;37.310;13.582;2022-09-20T01:07:06;4.53;;;1.92;;
61003;SDS011;46889;37.310;13.582;2022-09-20T01:09:34;7.63;;;2.03;;
61003;SDS011;46889;37.310;13.582;2022-09-20T01:12:02;6.57;;;1.92;;
61003;SDS011;46889;37.310;13.582;2022-09-20T01:14:33;4.50;;;1.80;;
61003;SDS011;46889;37.310;13.582;2022-09-20T01:17:02;4.43;;;1.75;;
61003;SDS011;46889;37.310;13.582;2022-09-20T01:19:41;6.05;;;2.03;;
61003;SDS011;46889;37.310;13.582;2022-09-20T01:22:25;7.40;;;2.33;;
61003;SDS011;46889;37.310;13.582;2022-09-20T01:27:37;6.72;;;2.35;;
61003;SDS011;46889;37.310;13.582;2022-09-20T01:30:13;6.05;;;2.20;;
61003;SDS011;46889;37.310;13.582;2022-09-20T01:35:33;6.40;;;2.33;;
61003;SDS011;46889;37.310;13.582;2022-09-20T01:38:06;9.13;;;2.45;;
61003;SDS011;46889;37.310;13.582;2022-09-20T01:46:01;5.22;;;2.05;;
61003;SDS011;46889;37.310;13.582;2022-09-20T01:48:55;7.93;;;2.53;;
61003;SDS011;46889;37.310;13.582;2022-09-20T01:51:52;6.68;;;2.25;;
61003;SDS011;46889;37.310;13.582;2022-09-20T02:00:04;4.93;;;2.35;;
61003;SDS011;46889;37.310;13.582;2022-09-20T02:08:26;6.20;;;2.63;;
61003;SDS011;46889;37.310;13.582;2022-09-20T02:16:29;9.48;;;2.95;;
61003;SDS011;46889;37.310;13.582;2022-09-20T02:25:10;7.22;;;3.00;;
61003;SDS011;46889;37.310;13.582;2022-09-20T02:30:37;7.45;;;3.25;;
61003;SDS011;46889;37.310;13.582;2022-09-20T02:33:43;8.65;;;2.88;;
61003;SDS011;46889;37.310;13.582;2022-09-20T02:39:16;9.63;;;3.10;;
61003;SDS011;46889;37.310;13.582;2022-09-20T02:41:52;6.43;;;2.45;;
61003;SDS011;46889;37.310;13.582;2022-09-20T02:44:32;9.77;;;3.15;;
61003;SDS011;46889;37.310;13.582;2022-09-20T02:58:35;6.18;;;2.10;;
61003;SDS011;46889;37.310;13.582;2022-09-20T03:15:22;4.47;;;1.30;;
61003;SDS011;46889;37.310;13.582;2022-09-20T03:18:10;4.22;;;1.50;;
61003;SDS011;46889;37.310;13.582;2022-09-20T03:37:59;10.10;;;2.40;;
61003;SDS011;46889;37.310;13.582;2022-09-20T03:40:47;6.72;;;2.25;;
61003;SDS011;46889;37.310;13.582;2022-09-20T03:43:22;4.90;;;2.35;;
61003;SDS011;46889;37.310;13.582;2022-09-20T03:56:32;11.43;;;2.47;;
61003;SDS011;46889;37.310;13.582;2022-09-20T04:04:54;7.95;;;2.95;;
61003;SDS011;46889;37.310;13.582;2022-09-20T04:10:23;7.57;;;2.40;;
61003;SDS011;46889;37.310;13.582;2022-09-20T04:24:38;7.93;;;2.33;;
61003;SDS011;46889;37.310;13.582;2022-09-20T04:27:16;11.45;;;2.70;;
61003;SDS011;46889;37.310;13.582;2022-09-20T04:32:58;7.50;;;2.80;;
61003;SDS011;46889;37.310;13.582;2022-09-20T04:38:31;7.78;;;2.90;;
61003;SDS011;46889;37.310;13.582;2022-09-20T05:00:20;9.80;;;2.35;;
61003;SDS011;46889;37.310;13.582;2022-09-20T05:05:32;9.70;;;2.17;;
61003;SDS011;46889;37.310;13.582;2022-09-20T05:13:50;7.43;;;2.67;;
61003;SDS011;46889;37.310;13.582;2022-09-20T05:16:46;9.13;;;2.58;;
61003;SDS011;46889;37.310;13.582;2022-09-20T05:19:45;10.90;;;2.78;;
61003;SDS011;46889;37.310;13.582;2022-09-20T05:31:05;8.25;;;2.47;;
61003;SDS011;46889;37.310;13.582;2022-09-20T05:33:51;12.02;;;3.13;;
61003;SDS011;46889;37.310;13.582;2022-09-20T05:36:31;9.43;;;2.63;;
61003;SDS011;46889;37.310;13.582;2022-09-20T05:39:41;8.68;;;2.60;;
61003;SDS011;46889;37.310;13.582;2022-09-20T05:42:08;9.70;;;2.70;;
61003;SDS011;46889;37.310;13.582;2022-09-20T06:05:00;21.30;;;2.83;;
61003;SDS011;46889;37.310;13.582;2022-09-20T06:10:30;11.05;;;2.83;;
61003;SDS011;46889;37.310;13.582;2022-09-20T06:16:08;10.27;;;2.80;;
61003;SDS011;46889;37.310;13.582;2022-09-20T06:18:58;11.45;;;2.92;;
61003;SDS011;46889;37.310;13.582;2022-09-20T06:21:41;10.15;;;3.20;;
61003;SDS011;46889;37.310;13.582;2022-09-20T06:27:31;12.82;;;2.78;;
61003;SDS011;46889;37.310;13.582;2022-09-20T06:30:27;13.43;;;2.80;;
61003;SDS011;46889;37.310;13.582;2022-09-20T06:33:24;10.35;;;2.63;;
61003;SDS011;46889;37.310;13.582;2022-09-20T06:35:57;8.43;;;2.50;;
61003;SDS011;46889;37.310;13.582;2022-09-20T06:38:56;8.73;;;2.50;;
61003;SDS011;46889;37.310;13.582;2022-09-20T06:42:06;9.05;;;2.42;;
61003;SDS011;46889;37.310;13.582;2022-09-20T06:44:34;9.43;;;3.30;;
61003;SDS011;46889;37.310;13.582;2022-09-20T06:47:06;9.13;;;2.30;;
61003;SDS011;46889;37.310;13.582;2022-09-20T06:49:34;10.02;;;2.58;;
61003;SDS011;46889;37.310;13.582;2022-09-20T06:52:03;8.20;;;2.45;;
61003;SDS011;46889;37.310;13.582;2022-09-20T06:54:30;12.55;;;3.30;;
61003;SDS011;46889;37.310;13.582;2022-09-20T06:56:56;8.75;;;2.17;;
61003;SDS011;46889;37.310;13.582;2022-09-20T06:59:23;9.43;;;2.58;;
61003;SDS011;46889;37.310;13.582;2022-09-20T07:04:15;7.85;;;2.25;;
61003;SDS011;46889;37.310;13.582;2022-09-20T07:06:41;8.43;;;2.30;;
61003;SDS011;46889;37.310;13.582;2022-09-20T07:09:08;6.88;;;2.15;;
61003;SDS011;46889;37.310;13.582;2022-09-20T07:11:35;7.10;;;2.50;;
61003;SDS011;46889;37.310;13.582;2022-09-20T07:14:01;10.07;;;2.60;;
61003;SDS011;46889;37.310;13.582;2022-09-20T07:16:28;7.47;;;2.42;;
61003;SDS011;46889;37.310;13.582;2022-09-20T07:18:54;8.43;;;2.65;;
61003;SDS011;46889;37.310;13.582;2022-09-20T07:21:21;10.73;;;2.50;;
61003;SDS011;46889;37.310;13.582;2022-09-20T07:23:47;9.20;;;2.30;;
61003;SDS011;46889;37.310;13.582;2022-09-20T07:26:18;11.07;;;3.05;;
61003;SDS011;46889;37.310;13.582;2022-09-20T07:28:46;16.27;;;3.95;;
61003;SDS011;46889;37.310;13.582;2022-09-20T07:31:13;9.52;;;3.30;;
61003;SDS011;46889;37.310;13.582;2022-09-20T07:33:40;8.55;;;2.92;;
61003;SDS011;46889;37.310;13.582;2022-09-20T07:36:06;11.43;;;2.60;;
61003;SDS011;46889;37.310;13.582;2022-09-20T07:38:34;6.68;;;2.85;;
61003;SDS011;46889;37.310;13.582;2022-09-20T07:41:00;7.35;;;2.60;;
61003;SDS011;46889;37.310;13.582;2022-09-20T07:43:27;8.98;;;2.70;;
61003;SDS011;46889;37.310;13.582;2022-09-20T07:45:54;11.80;;;3.10;;
61003;SDS011;46889;37.310;13.582;2022-09-20T07:48:22;9.77;;;3.28;;
61003;SDS011;46889;37.310;13.582;2022-09-20T07:50:56;10.05;;;2.70;;
61003;SDS011;46889;37.310;13.582;2022-09-20T07:53:26;11.15;;;2.90;;
61003;SDS011;46889;37.310;13.582;2022-09-20T07:56:03;11.60;;;3.17;;
61003;SDS011;46889;37.310;13.582;2022-09-20T08:01:05;12.32;;;3.55;;
61003;SDS011;46889;37.310;13.582;2022-09-20T08:06:21;8.82;;;2.60;;
61003;SDS011;46889;37.310;13.582;2022-09-20T08:09:03;9.05;;;2.45;;
61003;SDS011;46889;37.310;13.582;2022-09-20T08:11:29;6.53;;;2.50;;
61003;SDS011;46889;37.310;13.582;2022-09-20T08:16:24;7.00;;;2.33;;
61003;SDS011;46889;37.310;13.582;2022-09-20T08:18:55;5.60;;;1.90;;
61003;SDS011;46889;37.310;13.582;2022-09-20T08:21:26;7.68;;;2.42;;
61003;SDS011;46889;37.310;13.582;2022-09-20T08:23:55;9.25;;;2.60;;
61003;SDS011;46889;37.310;13.582;2022-09-20T08:26:23;10.40;;;2.22;;
61003;SDS011;46889;37.310;13.582;2022-09-20T08:28:51;7.38;;;2.45;;
61003;SDS011;46889;37.310;13.582;2022-09-20T08:31:19;9.82;;;2.25;;
61003;SDS011;46889;37.310;13.582;2022-09-20T08:33:48;7.20;;;2.33;;
61003;SDS011;46889;37.310;13.582;2022-09-20T08:36:16;11.43;;;2.40;;
61003;SDS011;46889;37.310;13.582;2022-09-20T08:38:51;5.78;;;2.10;;
61003;SDS011;46889;37.310;13.582;2022-09-20T08:41:19;10.70;;;2.10;;
61003;SDS011;46889;37.310;13.582;2022-09-20T08:43:56;6.65;;;1.88;;
61003;SDS011;46889;37.310;13.582;2022-09-20T08:47:04;11.43;;;2.20;;
61003;SDS011;46889;37.310;13.582;2022-09-20T08:49:37;8.73;;;2.10;;
61003;SDS011;46889;37.310;13.582;2022-09-20T08:52:05;5.88;;;1.70;;
61003;SDS011;46889;37.310;13.582;2022-09-20T08:54:35;7.00;;;1.80;;
61003;SDS011;46889;37.310;13.582;2022-09-20T08:57:02;9.95;;;2.28;;
61003;SDS011;46889;37.310;13.582;2022-09-20T08:59:33;6.60;;;2.00;;
61003;SDS011;46889;37.310;13.582;2022-09-20T09:01:59;8.23;;;2.15;;
61003;SDS011;46889;37.310;13.582;2022-09-20T09:04:30;8.35;;;1.90;;
61003;SDS011;46889;37.310;13.582;2022-09-20T09:07:00;8.95;;;1.95;;
61003;SDS011;46889;37.310;13.582;2022-09-20T09:09:26;12.00;;;2.38;;
61003;SDS011;46889;37.310;13.582;2022-09-20T09:11:54;6.80;;;1.90;;
61003;SDS011;46889;37.310;13.582;2022-09-20T09:17:14;8.50;;;1.80;;
61003;SDS011;46889;37.310;13.582;2022-09-20T09:20:24;7.22;;;2.00;;
61003;SDS011;46889;37.310;13.582;2022-09-20T09:22:45;7.65;;;2.00;;
61003;SDS011;46889;37.310;13.582;2022-09-20T09:36:05;8.18;;;1.98;;
61003;SDS011;46889;37.310;13.582;2022-09-20T09:38:34;5.85;;;2.00;;
61003;SDS011;46889;37.310;13.582;2022-09-20T09:41:04;7.88;;;1.88;;
61003;SDS011;46889;37.310;13.582;2022-09-20T09:43:33;4.95;;;1.80;;
61003;SDS011;46889;37.310;13.582;2022-09-20T09:46:18;5.65;;;1.92;;
61003;SDS011;46889;37.310;13.582;2022-09-20T09:51:31;13.65;;;2.30;;
61003;SDS011;46889;37.310;13.582;2022-09-20T09:53:58;9.70;;;2.15;;
61003;SDS011;46889;37.310;13.582;2022-09-20T09:56:28;8.48;;;2.17;;
61003;SDS011;46889;37.310;13.582;2022-09-20T10:05:04;6.07;;;2.15;;
61003;SDS011;46889;37.310;13.582;2022-09-20T10:07:57;13.52;;;2.55;;
61003;SDS011;46889;37.310;13.582;2022-09-20T10:10:43;10.48;;;2.33;;
61003;SDS011;46889;37.310;13.582;2022-09-20T10:19:02;7.10;;;2.13;;
61003;SDS011;46889;37.310;13.582;2022-09-20T10:21:48;9.85;;;1.90;;
61003;SDS011;46889;37.310;13.582;2022-09-20T10:24:30;8.70;;;2.30;;
61003;SDS011;46889;37.310;13.582;2022-09-20T10:27:33;8.43;;;2.13;;
61003;SDS011;46889;37.310;13.582;2022-09-20T10:30:14;6.28;;;1.90;;
61003;SDS011;46889;37.310;13.582;2022-09-20T10:35:47;9.15;;;2.30;;
61003;SDS011;46889;37.310;13.582;2022-09-20T10:38:29;8.73;;;1.98;;
61003;SDS011;46889;37.310;13.582;2022-09-20T10:41:35;9.05;;;3.53;;
61003;SDS011;46889;37.310;13.582;2022-09-20T10:45:07;13.15;;;2.10;;
61003;SDS011;46889;37.310;13.582;2022-09-20T10:47:41;9.77;;;2.25;;
61003;SDS011;46889;37.310;13.582;2022-09-20T10:53:06;12.15;;;2.17;;
61003;SDS011;46889;37.310;13.582;2022-09-20T10:56:08;11.35;;;2.20;;
61003;SDS011;46889;37.310;13.582;2022-09-20T11:01:35;7.05;;;2.03;;
61003;SDS011;46889;37.310;13.582;2022-09-20T11:09:21;9.35;;;1.85;;
61003;SDS011;46889;37.310;13.582;2022-09-20T11:11:52;9.77;;;1.98;;
61003;SDS011;46889;37.310;13.582;2022-09-20T11:14:50;7.43;;;1.75;;
61003;SDS011;46889;37.310;13.582;2022-09-20T11:17:21;7.88;;;2.05;;
61003;SDS011;46889;37.310;13.582;2022-09-20T11:19:55;6.90;;;2.10;;
61003;SDS011;46889;37.310;13.582;2022-09-20T11:22:43;7.25;;;2.13;;
61003;SDS011;46889;37.310;13.582;2022-09-20T11:25:35;9.07;;;2.05;;
61003;SDS011;46889;37.310;13.582;2022-09-20T11:28:26;6.90;;;1.70;;
61003;SDS011;46889;37.310;13.582;2022-09-20T11:31:03;6.78;;;2.00;;
61003;SDS011;46889;37.310;13.582;2022-09-20T11:36:49;9.50;;;1.70;;
61003;SDS011;46889;37.310;13.582;2022-09-20T11:41:50;6.72;;;1.90;;
61003;SDS011;46889;37.310;13.582;2022-09-20T11:44:20;5.15;;;1.90;;
61003;SDS011;46889;37.310;13.582;2022-09-20T11:55:27;5.30;;;1.83;;
61003;SDS011;46889;37.310;13.582;2022-09-20T11:58:15;7.00;;;1.83;;
61003;SDS011;46889;37.310;13.582;2022-09-20T12:00:47;11.90;;;3.08;;
61003;SDS011;46889;37.310;13.582;2022-09-20T12:03:29;10.93;;;2.25;;
61003;SDS011;46889;37.310;13.582;2022-09-20T12:06:03;10.05;;;2.22;;
61003;SDS011;46889;37.310;13.582;2022-09-20T12:08:34;8.05;;;1.90;;
61003;SDS011;46889;37.310;13.582;2022-09-20T12:11:07;6.07;;;1.73;;
61003;SDS011;46889;37.310;13.582;2022-09-20T12:13:39;5.43;;;1.70;;
61003;SDS011;46889;37.310;13.582;2022-09-20T12:16:14;10.07;;;2.00;;
61003;SDS011;46889;37.310;13.582;2022-09-20T12:18:47;10.55;;;2.00;;
61003;SDS011;46889;37.310;13.582;2022-09-20T12:21:26;10.35;;;2.03;;
61003;SDS011;46889;37.310;13.582;2022-09-20T12:28:51;9.10;;;1.95;;
61003;SDS011;46889;37.310;13.582;2022-09-20T12:36:42;5.63;;;1.90;;
61003;SDS011;46889;37.310;13.582;2022-09-20T12:39:20;7.50;;;2.05;;
61003;SDS011;46889;37.310;13.582;2022-09-20T12:47:00;8.80;;;2.08;;
61003;SDS011;46889;37.310;13.582;2022-09-20T13:05:49;6.00;;;1.50;;
61003;SDS011;46889;37.310;13.582;2022-09-20T13:14:21;7.80;;;1.38;;
61003;SDS011;46889;37.310;13.582;2022-09-20T13:19:29;7.75;;;1.88;;
61003;SDS011;46889;37.310;13.582;2022-09-20T13:24:25;5.00;;;1.38;;
61003;SDS011;46889;37.310;13.582;2022-09-20T13:26:55;6.97;;;1.50;;
61003;SDS011;46889;37.310;13.582;2022-09-20T13:32:14;6.30;;;1.70;;
61003;SDS011;46889;37.310;13.582;2022-09-20T13:40:42;8.20;;;1.40;;
61003;SDS011;46889;37.310;13.582;2022-09-20T13:43:04;5.10;;;1.58;;
61003;SDS011;46889;37.310;13.582;2022-09-20T13:45:46;8.57;;;1.60;;
61003;SDS011;46889;37.310;13.582;2022-09-20T13:48:17;5.18;;;1.73;;
61003;SDS011;46889;37.310;13.582;2022-09-20T13:50:43;6.50;;;1.77;;
61003;SDS011;46889;37.310;13.582;2022-09-20T13:55:40;7.05;;;1.65;;
61003;SDS011;46889;37.310;13.582;2022-09-20T13:58:27;7.70;;;1.70;;
61003;SDS011;46889;37.310;13.582;2022-09-20T14:00:58;6.18;;;1.55;;
61003;SDS011;46889;37.310;13.582;2022-09-20T14:03:31;7.78;;;1.67;;
61003;SDS011;46889;37.310;13.582;2022-09-20T14:05:59;6.57;;;1.80;;
61003;SDS011;46889;37.310;13.582;2022-09-20T14:08:42;10.80;;;2.20;;
61003;SDS011;46889;37.310;13.582;2022-09-20T14:11:25;7.35;;;1.98;;
61003;SDS011;46889;37.310;13.582;2022-09-20T14:13:55;10.43;;;1.92;;
61003;SDS011;46889;37.310;13.582;2022-09-20T14:16:39;10.75;;;1.70;;
61003;SDS011;46889;37.310;13.582;2022-09-20T14:19:14;6.47;;;1.70;;
61003;SDS011;46889;37.310;13.582;2022-09-20T14:21:42;7.43;;;1.75;;
61003;SDS011;46889;37.310;13.582;2022-09-20T14:26:39;8.48;;;2.10;;
61003;SDS011;46889;37.310;13.582;2022-09-20T14:40:04;8.60;;;2.00;;
61003;SDS011;46889;37.310;13.582;2022-09-20T14:42:42;13.00;;;2.03;;
61003;SDS011;46889;37.310;13.582;2022-09-20T14:45:22;6.63;;;1.73;;
61003;SDS011;46889;37.310;13.582;2022-09-20T14:50:31;7.60;;;2.30;;
61003;SDS011;46889;37.310;13.582;2022-09-20T14:55:26;11.13;;;2.45;;
61003;SDS011;46889;37.310;13.582;2022-09-20T14:57:58;17.05;;;2.97;;
61003;SDS011;46889;37.310;13.582;2022-09-20T15:00:27;13.27;;;2.67;;
61003;SDS011;46889;37.310;13.582;2022-09-20T15:02:53;11.35;;;2.70;;
61003;SDS011;46889;37.310;13.582;2022-09-20T15:05:27;9.85;;;2.53;;
61003;SDS011;46889;37.310;13.582;2022-09-20T15:10:20;7.80;;;1.88;;
61003;SDS011;46889;37.310;13.582;2022-09-20T15:12:47;6.93;;;1.98;;
61003;SDS011;46889;37.310;13.582;2022-09-20T15:15:14;8.02;;;1.77;;
61003;SDS011;46889;37.310;13.582;2022-09-20T15:17:43;9.10;;;2.00;;
61003;SDS011;46889;37.310;13.582;2022-09-20T15:20:15;9.98;;;1.85;;
61003;SDS011;46889;37.310;13.582;2022-09-20T15:22:45;9.55;;;2.00;;
61003;SDS011;46889;37.310;13.582;2022-09-20T15:25:17;10.40;;;2.10;;
61003;SDS011;46889;37.310;13.582;2022-09-20T15:27:45;8.40;;;1.90;;
61003;SDS011;46889;37.310;13.582;2022-09-20T15:30:15;10.18;;;2.13;;
61003;SDS011;46889;37.310;13.582;2022-09-20T15:32:44;8.95;;;1.85;;
61003;SDS011;46889;37.310;13.582;2022-09-20T15:35:11;9.55;;;2.80;;
61003;SDS011;46889;37.310;13.582;2022-09-20T15:37:38;8.80;;;1.98;;
61003;SDS011;46889;37.310;13.582;2022-09-20T15:40:05;9.82;;;2.00;;
61003;SDS011;46889;37.310;13.582;2022-09-20T15:42:33;6.88;;;1.88;;
61003;SDS011;46889;37.310;13.582;2022-09-20T15:45:08;9.73;;;2.42;;
61003;SDS011;46889;37.310;13.582;2022-09-20T15:47:35;11.02;;;2.17;;
61003;SDS011;46889;37.310;13.582;2022-09-20T15:50:05;9.13;;;2.25;;
61003;SDS011;46889;37.310;13.582;2022-09-20T15:52:33;11.73;;;2.20;;
61003;SDS011;46889;37.310;13.582;2022-09-20T15:55:01;9.00;;;1.98;;
61003;SDS011;46889;37.310;13.582;2022-09-20T15:57:28;10.48;;;2.20;;
61003;SDS011;46889;37.310;13.582;2022-09-20T15:59:55;5.85;;;1.70;;
61003;SDS011;46889;37.310;13.582;2022-09-20T16:02:22;7.65;;;1.80;;
61003;SDS011;46889;37.310;13.582;2022-09-20T16:04:49;10.57;;;2.20;;
61003;SDS011;46889;37.310;13.582;2022-09-20T16:07:19;11.98;;;2.20;;
61003;SDS011;46889;37.310;13.582;2022-09-20T16:09:50;6.22;;;2.05;;
61003;SDS011;46889;37.310;13.582;2022-09-20T16:12:17;8.45;;;2.17;;
61003;SDS011;46889;37.310;13.582;2022-09-20T16:14:44;9.30;;;2.58;;
61003;SDS011;46889;37.310;13.582;2022-09-20T16:17:10;8.82;;;2.83;;
61003;SDS011;46889;37.310;13.582;2022-09-20T16:19:36;9.40;;;2.65;;
61003;SDS011;46889;37.310;13.582;2022-09-20T16:24:32;13.25;;;2.70;;
61003;SDS011;46889;37.310;13.582;2022-09-20T16:27:00;11.20;;;3.13;;
61003;SDS011;46889;37.310;13.582;2022-09-20T16:29:28;8.10;;;3.40;;
61003;SDS011;46889;37.310;13.582;2022-09-20T16:31:55;11.20;;;3.83;;
61003;SDS011;46889;37.310;13.582;2022-09-20T16:34:23;13.60;;;3.88;;
61003;SDS011;46889;37.310;13.582;2022-09-20T16:36:55;9.45;;;3.70;;
61003;SDS011;46889;37.310;13.582;2022-09-20T16:39:26;10.23;;;3.47;;
61003;SDS011;46889;37.310;13.582;2022-09-20T16:41:54;11.20;;;3.53;;
61003;SDS011;46889;37.310;13.582;2022-09-20T16:44:22;12.07;;;3.78;;
61003;SDS011;46889;37.310;13.582;2022-09-20T16:49:14;6.50;;;2.97;;
61003;SDS011;46889;37.310;13.582;2022-09-20T16:51:41;6.82;;;3.35;;
61003;SDS011;46889;37.310;13.582;2022-09-20T16:54:09;12.32;;;3.75;;
61003;SDS011;46889;37.310;13.582;2022-09-20T16:56:41;10.45;;;4.50;;
61003;SDS011;46889;37.310;13.582;2022-09-20T16:59:09;8.82;;;4.07;;
61003;SDS011;46889;37.310;13.582;2022-09-20T17:01:37;9.23;;;4.10;;
61003;SDS011;46889;37.310;13.582;2022-09-20T17:04:04;11.38;;;4.03;;
61003;SDS011;46889;37.310;13.582;2022-09-20T17:06:33;9.32;;;3.70;;
61003;SDS011;46889;37.310;13.582;2022-09-20T17:09:00;9.85;;;3.72;;
61003;SDS011;46889;37.310;13.582;2022-09-20T17:11:28;10.95;;;3.67;;
61003;SDS011;46889;37.310;13.582;2022-09-20T17:13:57;14.02;;;3.22;;
61003;SDS011;46889;37.310;13.582;2022-09-20T17:16:25;10.57;;;3.40;;
61003;SDS011;46889;37.310;13.582;2022-09-20T17:18:58;8.95;;;4.25;;
61003;SDS011;46889;37.310;13.582;2022-09-20T17:21:26;8.52;;;3.53;;
61003;SDS011;46889;37.310;13.582;2022-09-20T17:23:54;8.45;;;2.88;;
61003;SDS011;46889;37.310;13.582;2022-09-20T17:26:22;9.85;;;3.20;;
61003;SDS011;46889;37.310;13.582;2022-09-20T17:28:55;13.60;;;4.82;;
61003;SDS011;46889;37.310;13.582;2022-09-20T17:31:24;13.00;;;5.28;;
61003;SDS011;46889;37.310;13.582;2022-09-20T17:34:01;13.75;;;3.88;;
61003;SDS011;46889;37.310;13.582;2022-09-20T17:36:30;11.68;;;4.07;;
61003;SDS011;46889;37.310;13.582;2022-09-20T17:38:58;14.43;;;3.30;;
61003;SDS011;46889;37.310;13.582;2022-09-20T17:41:26;12.23;;;3.42;;
61003;SDS011;46889;37.310;13.582;2022-09-20T17:43:54;9.88;;;3.50;;
61003;SDS011;46889;37.310;13.582;2022-09-20T17:46:26;10.70;;;3.20;;
61003;SDS011;46889;37.310;13.582;2022-09-20T17:48:56;12.50;;;2.97;;
61003;SDS011;46889;37.310;13.582;2022-09-20T17:51:30;11.55;;;2.70;;
61003;SDS011;46889;37.310;13.582;2022-09-20T17:53:58;11.45;;;2.60;;
61003;SDS011;46889;37.310;13.582;2022-09-20T17:58:58;7.57;;;2.15;;
61003;SDS011;46889;37.310;13.582;2022-09-20T18:01:25;10.70;;;2.63;;
61003;SDS011;46889;37.310;13.582;2022-09-20T18:03:53;9.73;;;2.38;;
61003;SDS011;46889;37.310;13.582;2022-09-20T18:06:23;9.40;;;2.55;;
61003;SDS011;46889;37.310;13.582;2022-09-20T18:08:55;9.10;;;2.63;;
61003;SDS011;46889;37.310;13.582;2022-09-20T18:11:29;8.00;;;2.45;;
61003;SDS011;46889;37.310;13.582;2022-09-20T18:13:56;8.05;;;2.30;;
61003;SDS011;46889;37.310;13.582;2022-09-20T18:16:28;8.68;;;2.53;;
61003;SDS011;46889;37.310;13.582;2022-09-20T18:18:58;8.93;;;3.17;;
61003;SDS011;46889;37.310;13.582;2022-09-20T18:21:25;11.02;;;2.78;;
61003;SDS011;46889;37.310;13.582;2022-09-20T18:23:52;16.48;;;2.80;;
61003;SDS011;46889;37.310;13.582;2022-09-20T18:26:21;9.75;;;2.70;;
61003;SDS011;46889;37.310;13.582;2022-09-20T18:28:55;8.75;;;2.53;;
61003;SDS011;46889;37.310;13.582;2022-09-20T18:31:30;11.10;;;2.58;;
61003;SDS011;46889;37.310;13.582;2022-09-20T18:34:06;10.05;;;2.22;;
61003;SDS011;46889;37.310;13.582;2022-09-20T18:36:39;13.27;;;2.70;;
61003;SDS011;46889;37.310;13.582;2022-09-20T18:39:05;12.20;;;2.38;;
61003;SDS011;46889;37.310;13.582;2022-09-20T18:41:33;9.50;;;2.30;;
61003;SDS011;46889;37.310;13.582;2022-09-20T18:44:01;9.27;;;2.60;;
61003;SDS011;46889;37.310;13.582;2022-09-20T18:46:28;13.05;;;3.45;;
61003;SDS011;46889;37.310;13.582;2022-09-20T18:48:56;12.02;;;3.10;;
61003;SDS011;46889;37.310;13.582;2022-09-20T18:51:25;11.65;;;3.20;;
61003;SDS011;46889;37.310;13.582;2022-09-20T18:53:53;12.98;;;3.33;;
61003;SDS011;46889;37.310;13.582;2022-09-20T18:56:21;12.98;;;3.00;;
61003;SDS011;46889;37.310;13.582;2022-09-20T19:26:14;8.57;;;2.53;;
61003;SDS011;46889;37.310;13.582;2022-09-20T19:28:43;10.70;;;2.33;;
61003;SDS011;46889;37.310;13.582;2022-09-20T19:31:31;13.65;;;2.97;;
61003;SDS011;46889;37.310;13.582;2022-09-20T19:33:59;9.70;;;2.60;;
61003;SDS011;46889;37.310;13.582;2022-09-20T19:36:43;12.20;;;2.60;;
61003;SDS011;46889;37.310;13.582;2022-09-20T19:41:55;12.73;;;3.20;;
61003;SDS011;46889;37.310;13.582;2022-09-20T19:50:13;17.10;;;4.07;;
61003;SDS011;46889;37.310;13.582;2022-09-20T19:52:41;13.98;;;3.53;;
61003;SDS011;46889;37.310;13.582;2022-09-20T19:55:11;11.23;;;4.00;;
61003;SDS011;46889;37.310;13.582;2022-09-20T19:57:41;13.50;;;3.17;;
61003;SDS011;46889;37.310;13.582;2022-09-20T20:00:12;9.35;;;2.63;;
61003;SDS011;46889;37.310;13.582;2022-09-20T20:02:40;11.52;;;3.38;;
61003;SDS011;46889;37.310;13.582;2022-09-20T20:05:14;9.57;;;3.05;;
61003;SDS011;46889;37.310;13.582;2022-09-20T20:16:10;9.38;;;2.83;;
61003;SDS011;46889;37.310;13.582;2022-09-20T20:21:18;11.70;;;2.92;;
61003;SDS011;46889;37.310;13.582;2022-09-20T20:26:58;10.52;;;3.20;;
61003;SDS011;46889;37.310;13.582;2022-09-20T20:29:25;12.63;;;3.38;;
61003;SDS011;46889;37.310;13.582;2022-09-20T20:31:51;13.18;;;3.47;;
61003;SDS011;46889;37.310;13.582;2022-09-20T20:34:17;14.00;;;3.67;;
61003;SDS011;46889;37.310;13.582;2022-09-20T20:36:44;13.55;;;3.55;;
61003;SDS011;46889;37.310;13.582;2022-09-20T20:39:11;11.80;;;3.25;;
61003;SDS011;46889;37.310;13.582;2022-09-20T20:41:37;12.15;;;3.28;;
61003;SDS011;46889;37.310;13.582;2022-09-20T20:44:04;13.02;;;3.50;;
61003;SDS011;46889;37.310;13.582;2022-09-20T20:46:31;15.88;;;3.85;;
61003;SDS011;46889;37.310;13.582;2022-09-20T20:49:00;11.63;;;3.58;;
61003;SDS011;46889;37.310;13.582;2022-09-20T20:51:27;13.05;;;4.18;;
61003;SDS011;46889;37.310;13.582;2022-09-20T20:53:57;12.25;;;3.60;;
61003;SDS011;46889;37.310;13.582;2022-09-20T20:56:27;11.75;;;4.22;;
61003;SDS011;46889;37.310;13.582;2022-09-20T20:58:54;14.00;;;3.65;;
61003;SDS011;46889;37.310;13.582;2022-09-20T21:01:28;9.93;;;3.55;;
61003;SDS011;46889;37.310;13.582;2022-09-20T21:03:56;15.18;;;3.53;;
61003;SDS011;46889;37.310;13.582;2022-09-20T21:06:32;11.15;;;3.33;;
61003;SDS011;46889;37.310;13.582;2022-09-20T21:09:00;11.15;;;3.58;;
61003;SDS011;46889;37.310;13.582;2022-09-20T21:11:31;12.60;;;3.33;;
61003;SDS011;46889;37.310;13.582;2022-09-20T21:13:59;12.70;;;3.45;;
61003;SDS011;46889;37.310;13.582;2022-09-20T21:16:27;12.25;;;4.07;;
61003;SDS011;46889;37.310;13.582;2022-09-20T21:18:56;10.05;;;3.20;;
61003;SDS011;46889;37.310;13.582;2022-09-20T21:21:25;8.77;;;3.67;;
61003;SDS011;46889;37.310;13.582;2022-09-20T21:24:01;9.15;;;3.75;;
61003;SDS011;46889;37.310;13.582;2022-09-20T21:26:31;12.98;;;4.28;;
61003;SDS011;46889;37.310;13.582;2022-09-20T21:29:06;11.02;;;3.70;;
61003;SDS011;46889;37.310;13.582;2022-09-20T21:31:35;9.77;;;4.22;;
61003;SDS011;46889;37.310;13.582;2022-09-20T21:34:03;8.27;;;3.80;;